Time;durP1;ratioP1;P1;durP2;ratioP2;P2;SDS_P1;SDS_P2;PMS_P1;PMS_P2;Temp;Humidity;BMP_temperature;BMP_pressure;BME280_temperature;BME280_humidity;BME280_pressure;Samples;Min_cycle;Max_cycle;Signal;HPM_P1;HPM_P2
2021/07/06 03:44:43;;;;;;;17.20;16.40;;;;;;;;;;4995832;28;20426;-89
2021/07/06 03:47:10;;;;;;;17.20;16.43;;;;;;;;;;4997206;28;20457;-89
2021/07/06 03:55:48;;;;;;;17.13;16.30;;;;;;;;;;5040465;23;20490;-89
2021/07/06 03:58:16;;;;;;;17.23;16.43;;;;;;;;;;5056149;28;20441;-89
2021/07/06 04:00:45;;;;;;;16.70;16.00;;;;;;;;;;5055612;28;20806;-89
2021/07/06 04:09:22;;;;;;;17.30;16.50;;;;;;;;;;5074855;22;20545;-90
2021/07/06 04:11:50;;;;;;;17.67;16.87;;;;;;;;;;5055783;28;20440;-90
2021/07/06 04:14:17;;;;;;;17.43;16.43;;;;;;;;;;5055811;28;20443;-90
2021/07/06 04:22:56;;;;;;;17.37;16.67;;;;;;;;;;5068993;23;20533;-88
2021/07/06 04:25:24;;;;;;;16.53;15.70;;;;;;;;;;5038044;28;20454;-88
2021/07/06 04:27:52;;;;;;;19.00;18.20;;;;;;;;;;5055680;28;20480;-87
2021/07/06 04:30:20;;;;;;;18.33;17.43;;;;;;;;;;5038091;28;21007;-88
2021/07/06 04:32:47;;;;;;;17.77;16.97;;;;;;;;;;5037855;28;20411;-88
2021/07/06 04:35:15;;;;;;;19.13;17.87;;;;;;;;;;5055887;28;20415;-88
2021/07/06 04:37:42;;;;;;;18.10;17.20;;;;;;;;;;5055603;28;20413;-88
2021/07/06 04:40:12;;;;;;;17.43;16.50;;;;;;;;;;5055121;28;20470;-89
2021/07/06 04:42:39;;;;;;;19.60;18.50;;;;;;;;;;5055084;28;20922;-89
2021/07/06 04:45:07;;;;;;;18.17;17.40;;;;;;;;;;5055392;28;20433;-89
2021/07/06 04:47:34;;;;;;;17.20;16.50;;;;;;;;;;5055251;28;20524;-89
2021/07/06 04:50:02;;;;;;;18.10;17.20;;;;;;;;;;5055351;28;20418;-88
2021/07/06 04:52:29;;;;;;;17.80;16.90;;;;;;;;;;5055332;28;20455;-88
2021/07/06 04:54:56;;;;;;;17.63;16.73;;;;;;;;;;5055862;28;20415;-88
2021/07/06 04:57:25;;;;;;;18.20;17.30;;;;;;;;;;5055269;28;20419;-89
2021/07/06 04:59:53;;;;;;;17.30;16.50;;;;;;;;;;5054889;28;20456;-88
2021/07/06 05:02:21;;;;;;;17.50;16.70;;;;;;;;;;5054815;28;20440;-88
2021/07/06 05:04:48;;;;;;;18.50;17.70;;;;;;;;;;5055028;28;20947;-88
2021/07/06 05:07:15;;;;;;;18.10;16.90;;;;;;;;;;5055359;28;20480;-88
2021/07/06 05:09:43;;;;;;;17.83;16.57;;;;;;;;;;5055001;28;20410;-88
2021/07/06 05:12:10;;;;;;;16.73;16.03;;;;;;;;;;5054555;28;20411;-88
2021/07/06 05:14:39;;;;;;;17.97;16.87;;;;;;;;;;5055027;28;20432;-88
2021/07/06 05:17:07;;;;;;;17.40;16.60;;;;;;;;;;5054507;28;20417;-88
2021/07/06 05:19:34;;;;;;;17.80;17.00;;;;;;;;;;5054737;28;20509;-88
2021/07/06 05:22:02;;;;;;;17.80;17.00;;;;;;;;;;5033480;28;20841;-88
2021/07/06 05:24:29;;;;;;;17.77;16.97;;;;;;;;;;5034530;28;20442;-87
2021/07/06 05:26:56;;;;;;;19.10;17.73;;;;;;;;;;5034412;28;20445;-88
2021/07/06 05:29:24;;;;;;;18.13;17.23;;;;;;;;;;5034731;28;20433;-89
2021/07/06 05:31:53;;;;;;;17.83;16.93;;;;;;;;;;5034542;28;20440;-88
2021/07/06 05:34:20;;;;;;;18.63;17.63;;;;;;;;;;5034855;28;20430;-88
2021/07/06 05:36:49;;;;;;;18.10;17.20;;;;;;;;;;5033500;28;20861;-88
2021/07/06 05:39:18;;;;;;;18.50;17.43;;;;;;;;;;5034216;28;20469;-88
2021/07/06 05:41:45;;;;;;;18.73;17.37;;;;;;;;;;5034258;28;20488;-88
2021/07/06 05:44:13;;;;;;;18.57;17.50;;;;;;;;;;5034277;28;20441;-88
2021/07/06 05:46:40;;;;;;;18.50;17.57;;;;;;;;;;5034144;28;20513;-88
2021/07/06 05:49:09;;;;;;;19.50;17.87;;;;;;;;;;5034316;28;20481;-88
2021/07/06 05:51:37;;;;;;;17.43;16.57;;;;;;;;;;5034605;28;20450;-88
2021/07/06 05:54:04;;;;;;;18.23;17.10;;;;;;;;;;5033149;28;20509;-88
2021/07/06 05:56:33;;;;;;;17.93;17.13;;;;;;;;;;5033922;28;20494;-89
2021/07/06 05:59:00;;;;;;;18.20;17.20;;;;;;;;;;5033873;28;20511;-88
2021/07/06 06:01:31;;;;;;;18.57;17.60;;;;;;;;;;5033977;28;20508;-88
2021/07/06 06:03:58;;;;;;;19.00;18.10;;;;;;;;;;5034238;28;20428;-88
2021/07/06 06:06:27;;;;;;;18.73;17.73;;;;;;;;;;5033258;28;20769;-88
2021/07/06 06:08:54;;;;;;;18.17;17.27;;;;;;;;;;5034042;28;20985;-87
2021/07/06 06:11:22;;;;;;;18.83;17.80;;;;;;;;;;5034496;28;20426;-87
2021/07/06 06:13:49;;;;;;;18.53;17.60;;;;;;;;;;5034317;28;20471;-86
2021/07/06 06:16:16;;;;;;;18.77;17.97;;;;;;;;;;5033910;28;20438;-87
2021/07/06 06:18:44;;;;;;;19.60;18.43;;;;;;;;;;5033902;28;20961;-87
2021/07/06 06:21:11;;;;;;;20.30;19.20;;;;;;;;;;5033875;28;20925;-87
2021/07/06 06:23:40;;;;;;;20.53;19.43;;;;;;;;;;5051735;28;20503;-85
2021/07/06 06:26:08;;;;;;;20.70;19.40;;;;;;;;;;5057926;28;20472;-86
2021/07/06 06:28:36;;;;;;;19.30;18.30;;;;;;;;;;5057823;28;20571;-85
2021/07/06 06:31:04;;;;;;;20.07;19.07;;;;;;;;;;5040269;28;20457;-86
2021/07/06 06:33:31;;;;;;;19.70;18.70;;;;;;;;;;5057794;28;20417;-86
2021/07/06 06:35:58;;;;;;;20.80;19.70;;;;;;;;;;5057979;28;20421;-87
2021/07/06 06:38:26;;;;;;;20.87;19.77;;;;;;;;;;5058081;28;21020;-87
2021/07/06 06:40:55;;;;;;;20.27;19.07;;;;;;;;;;5040010;28;20499;-86
2021/07/06 06:43:22;;;;;;;20.63;19.37;;;;;;;;;;5040311;28;20785;-86
2021/07/06 06:45:49;;;;;;;20.50;19.50;;;;;;;;;;5057632;28;20441;-86
2021/07/06 06:48:17;;;;;;;20.30;19.20;;;;;;;;;;5057710;28;20456;-86
2021/07/06 06:50:44;;;;;;;21.27;20.07;;;;;;;;;;5057419;28;20417;-85
2021/07/06 06:53:11;;;;;;;20.93;19.73;;;;;;;;;;5057378;28;20419;-85
2021/07/06 06:55:39;;;;;;;20.43;19.33;;;;;;;;;;5057850;28;20863;-85
2021/07/06 06:58:08;;;;;;;21.60;20.50;;;;;;;;;;5056936;28;20424;-86
2021/07/06 07:00:35;;;;;;;22.47;21.20;;;;;;;;;;5057793;28;20457;-85
2021/07/06 07:03:02;;;;;;;20.77;19.77;;;;;;;;;;5056966;28;20459;-85
2021/07/06 07:05:30;;;;;;;21.63;20.53;;;;;;;;;;5057334;28;20427;-85
2021/07/06 07:07:58;;;;;;;21.60;20.40;;;;;;;;;;5056656;28;20476;-85
2021/07/06 07:10:26;;;;;;;21.57;20.43;;;;;;;;;;5056812;28;20435;-85
2021/07/06 07:12:56;;;;;;;20.60;19.50;;;;;;;;;;5057101;28;20446;-85
2021/07/06 07:15:25;;;;;;;21.87;20.67;;;;;;;;;;5057065;28;20445;-85
2021/07/06 07:17:52;;;;;;;21.00;20.00;;;;;;;;;;5056563;28;20409;-86
2021/07/06 07:20:21;;;;;;;21.90;20.80;;;;;;;;;;5057063;28;21011;-86
2021/07/06 07:22:48;;;;;;;21.13;20.03;;;;;;;;;;5056404;28;20481;-85
2021/07/06 07:25:16;;;;;;;21.33;20.23;;;;;;;;;;5039214;28;20412;-86
2021/07/06 07:27:43;;;;;;;21.07;19.83;;;;;;;;;;5056435;28;20435;-85
2021/07/06 07:30:13;;;;;;;21.00;19.90;;;;;;;;;;5056781;28;20449;-85
2021/07/06 07:32:42;;;;;;;21.13;20.03;;;;;;;;;;5038976;28;20802;-85
2021/07/06 07:35:10;;;;;;;21.70;20.30;;;;;;;;;;5056713;28;20458;-85
2021/07/06 07:37:37;;;;;;;20.47;19.27;;;;;;;;;;5056227;28;20416;-85
2021/07/06 07:40:05;;;;;;;20.80;19.73;;;;;;;;;;5056206;28;20942;-86
2021/07/06 07:42:33;;;;;;;19.77;18.67;;;;;;;;;;5056576;28;20409;-85
2021/07/06 07:45:00;;;;;;;19.93;18.90;;;;;;;;;;5056334;28;20451;-85
2021/07/06 07:47:28;;;;;;;19.10;18.10;;;;;;;;;;5056463;28;20439;-85
2021/07/06 07:49:57;;;;;;;19.70;18.70;;;;;;;;;;5055827;28;20492;-85
2021/07/06 07:52:24;;;;;;;20.10;19.00;;;;;;;;;;5056631;28;20494;-85
2021/07/06 07:54:51;;;;;;;19.37;18.47;;;;;;;;;;5056349;28;20439;-85
2021/07/06 07:57:25;;;;;;;20.17;18.63;;;;;;;;;;5055796;28;20416;-85
2021/07/06 07:59:52;;;;;;;19.00;17.90;;;;;;;;;;5056164;28;20437;-85
2021/07/06 08:02:19;;;;;;;19.03;18.03;;;;;;;;;;5056082;28;20434;-85
2021/07/06 08:04:47;;;;;;;19.23;17.93;;;;;;;;;;5056260;28;20416;-85
2021/07/06 08:07:16;;;;;;;18.90;17.90;;;;;;;;;;5055797;28;20442;-85
2021/07/06 08:09:44;;;;;;;19.13;18.13;;;;;;;;;;5056280;28;20521;-85
2021/07/06 08:12:12;;;;;;;18.77;17.77;;;;;;;;;;5055933;28;20797;-85
2021/07/06 08:14:41;;;;;;;19.13;18.17;;;;;;;;;;5038660;28;20420;-85
2021/07/06 08:17:08;;;;;;;18.83;17.83;;;;;;;;;;5038196;28;20429;-86
2021/07/06 08:19:36;;;;;;;18.23;17.43;;;;;;;;;;5038625;28;20451;-86
2021/07/06 08:22:04;;;;;;;18.00;17.10;;;;;;;;;;5037927;28;20902;-86
2021/07/06 08:24:33;;;;;;;18.77;17.40;;;;;;;;;;5055812;28;20416;-86
2021/07/06 08:27:00;;;;;;;18.47;17.57;;;;;;;;;;5055723;28;20416;-86
2021/07/06 08:29:31;;;;;;;18.90;18.00;;;;;;;;;;5055594;28;20535;-86
2021/07/06 08:31:58;;;;;;;18.23;17.43;;;;;;;;;;5055723;28;20448;-86
2021/07/06 08:34:26;;;;;;;18.83;17.83;;;;;;;;;;5038009;28;20416;-86
2021/07/06 08:36:53;;;;;;;18.17;17.27;;;;;;;;;;5055637;28;20446;-86
2021/07/06 08:39:20;;;;;;;18.10;17.20;;;;;;;;;;5038192;28;20456;-86
2021/07/06 08:41:49;;;;;;;17.83;16.93;;;;;;;;;;5055087;28;20450;-86
2021/07/06 08:44:20;;;;;;;17.73;16.90;;;;;;;;;;5055504;28;20444;-86
2021/07/06 08:46:48;;;;;;;17.60;16.80;;;;;;;;;;5039005;28;20443;-86
2021/07/06 08:49:15;;;;;;;18.80;17.60;;;;;;;;;;5055566;28;20517;-86
2021/07/06 08:51:43;;;;;;;18.10;17.30;;;;;;;;;;5055109;28;20469;-86
2021/07/06 08:54:12;;;;;;;19.47;18.37;;;;;;;;;;5055409;28;20417;-85
2021/07/06 08:56:40;;;;;;;19.00;18.00;;;;;;;;;;5037456;28;20457;-86
2021/07/06 08:59:09;;;;;;;19.47;18.57;;;;;;;;;;5037775;28;20460;-86
2021/07/06 09:01:36;;;;;;;18.70;17.80;;;;;;;;;;5055020;28;20469;-85
2021/07/06 09:04:04;;;;;;;18.60;17.33;;;;;;;;;;5054905;28;20407;-86
2021/07/06 09:06:35;;;;;;;17.57;16.67;;;;;;;;;;5054866;28;20431;-85
2021/07/06 09:09:19;;;;;;;18.50;17.57;;;;;;;;;;5054731;28;20483;-85
2021/07/06 09:11:47;;;;;;;18.30;17.37;;;;;;;;;;5054597;28;20429;-85
2021/07/06 09:14:16;;;;;;;18.17;17.27;;;;;;;;;;5054869;28;20483;-85
2021/07/06 09:16:44;;;;;;;17.90;17.10;;;;;;;;;;5054959;28;20423;-85
2021/07/06 09:19:18;;;;;;;17.30;16.50;;;;;;;;;;5054401;28;20400;-85
2021/07/06 09:21:46;;;;;;;17.80;17.00;;;;;;;;;;5036825;28;20456;-85
2021/07/06 09:24:23;;;;;;;18.93;17.93;;;;;;;;;;5054569;28;20441;-85
2021/07/06 09:26:53;;;;;;;19.13;18.03;;;;;;;;;;5054141;28;20429;-85
2021/07/06 09:29:25;;;;;;;18.77;17.67;;;;;;;;;;5054078;28;20491;-85
2021/07/06 09:31:53;;;;;;;17.73;16.93;;;;;;;;;;5054408;28;20500;-85
2021/07/06 09:34:20;;;;;;;18.17;17.27;;;;;;;;;;5037373;28;20438;-85
2021/07/06 09:36:48;;;;;;;18.40;17.60;;;;;;;;;;5054757;28;20489;-85
2021/07/06 09:39:17;;;;;;;18.20;17.40;;;;;;;;;;5036509;28;20848;-85
2021/07/06 09:41:53;;;;;;;17.63;16.80;;;;;;;;;;5036599;28;20444;-85
2021/07/06 09:44:39;;;;;;;17.50;16.60;;;;;;;;;;5054272;28;20418;-85
2021/07/06 09:47:08;;;;;;;18.77;17.77;;;;;;;;;;5053993;28;20441;-85
2021/07/06 09:49:37;;;;;;;17.80;17.00;;;;;;;;;;5054115;28;20494;-85
2021/07/06 09:52:11;;;;;;;17.90;17.10;;;;;;;;;;5054004;28;20502;-85
2021/07/06 09:54:42;;;;;;;17.57;16.77;;;;;;;;;;5036700;28;20426;-85
2021/07/06 09:57:20;;;;;;;17.20;16.40;;;;;;;;;;5054161;28;20502;-85
2021/07/06 09:59:56;;;;;;;17.27;16.30;;;;;;;;;;5035674;28;20485;-85
2021/07/06 10:02:23;;;;;;;16.53;15.83;;;;;;;;;;5054240;28;20454;-86
2021/07/06 10:04:53;;;;;;;17.00;16.20;;;;;;;;;;5053926;28;20411;-84
2021/07/06 10:07:21;;;;;;;17.13;16.43;;;;;;;;;;5053784;28;20411;-84
2021/07/06 10:09:48;;;;;;;16.90;16.17;;;;;;;;;;5053653;28;20538;-85
2021/07/06 10:12:17;;;;;;;17.27;16.40;;;;;;;;;;5053514;28;20419;-84
2021/07/06 10:14:44;;;;;;;17.03;16.20;;;;;;;;;;5053939;28;20523;-88
2021/07/06 10:17:13;;;;;;;16.90;16.20;;;;;;;;;;5053574;28;20438;-83
2021/07/06 10:19:41;;;;;;;17.60;16.80;;;;;;;;;;5053756;28;20444;-83
2021/07/06 10:22:09;;;;;;;16.57;15.80;;;;;;;;;;5053449;28;20459;-84
2021/07/06 10:24:38;;;;;;;17.13;16.33;;;;;;;;;;5053748;28;20430;-85
2021/07/06 10:27:07;;;;;;;17.50;16.70;;;;;;;;;;5053563;28;20427;-87
2021/07/06 10:29:35;;;;;;;17.27;16.27;;;;;;;;;;5035806;28;20509;-85
2021/07/06 10:32:03;;;;;;;17.97;16.97;;;;;;;;;;5053921;28;20792;-84
2021/07/06 10:34:42;;;;;;;18.10;17.30;;;;;;;;;;5054624;28;20461;-85
2021/07/06 10:37:28;;;;;;;17.63;16.70;;;;;;;;;;5053399;28;20905;-84
2021/07/06 10:39:56;;;;;;;17.30;16.40;;;;;;;;;;5053345;28;21056;-86
2021/07/06 10:42:39;;;;;;;18.00;17.20;;;;;;;;;;5053385;28;20412;-84
2021/07/06 10:45:16;;;;;;;18.97;17.90;;;;;;;;;;5054248;28;20456;-84
2021/07/06 10:47:46;;;;;;;18.00;17.10;;;;;;;;;;5053672;28;20441;-85
2021/07/06 10:50:32;;;;;;;17.87;16.93;;;;;;;;;;5053605;28;20490;-85
2021/07/06 10:53:17;;;;;;;17.60;16.80;;;;;;;;;;5053643;28;20441;-84
2021/07/06 10:55:45;;;;;;;18.00;17.20;;;;;;;;;;5035009;28;20836;-85
2021/07/06 10:58:13;;;;;;;18.63;17.73;;;;;;;;;;5036047;28;20415;-84
2021/07/06 11:00:45;;;;;;;16.83;16.13;;;;;;;;;;5053299;28;20842;-84
2021/07/06 11:03:16;;;;;;;18.10;17.10;;;;;;;;;;5053097;28;20785;-84
2021/07/06 11:05:44;;;;;;;17.67;16.87;;;;;;;;;;5053071;28;20421;-84
2021/07/06 11:08:40;;;;;;;17.20;16.20;;;;;;;;;;5053176;28;20445;-84
2021/07/06 11:11:08;;;;;;;17.40;16.60;;;;;;;;;;5055892;28;21003;-84
2021/07/06 11:13:36;;;;;;;17.07;16.37;;;;;;;;;;5056530;28;20427;-84
2021/07/06 11:16:04;;;;;;;16.67;15.97;;;;;;;;;;5056480;28;20439;-85
2021/07/06 11:18:35;;;;;;;17.37;16.40;;;;;;;;;;5056557;28;20412;-85
2021/07/06 11:21:03;;;;;;;17.70;16.80;;;;;;;;;;5056523;28;20431;-85
2021/07/06 11:23:37;;;;;;;17.80;16.80;;;;;;;;;;5056310;28;20788;-84
2021/07/06 11:26:05;;;;;;;18.23;17.27;;;;;;;;;;5056600;28;20477;-84
2021/07/06 11:28:33;;;;;;;18.33;17.20;;;;;;;;;;5038743;28;20424;-84
2021/07/06 11:31:01;;;;;;;18.07;17.23;;;;;;;;;;5056311;28;20563;-84
2021/07/06 11:33:40;;;;;;;17.03;16.13;;;;;;;;;;5056418;28;20816;-84
2021/07/06 11:36:08;;;;;;;18.27;17.37;;;;;;;;;;5039449;28;20449;-84
2021/07/06 11:38:41;;;;;;;18.27;17.27;;;;;;;;;;5056530;28;20441;-84
2021/07/06 11:41:09;;;;;;;17.90;17.00;;;;;;;;;;5056261;28;20482;-85
2021/07/06 11:43:37;;;;;;;18.27;17.37;;;;;;;;;;5056229;28;20456;-84
2021/07/06 11:46:05;;;;;;;18.13;17.23;;;;;;;;;;5038269;28;20460;-84
2021/07/06 11:48:34;;;;;;;18.20;17.30;;;;;;;;;;5038366;28;20429;-84
2021/07/06 11:51:03;;;;;;;19.00;18.10;;;;;;;;;;5055761;28;20489;-84
2021/07/06 11:53:31;;;;;;;18.83;17.83;;;;;;;;;;5056228;28;20424;-84
2021/07/06 11:56:01;;;;;;;18.63;17.73;;;;;;;;;;5055629;28;20476;-85
2021/07/06 11:58:29;;;;;;;18.63;17.73;;;;;;;;;;5055980;28;20417;-84
2021/07/06 12:00:59;;;;;;;17.83;17.03;;;;;;;;;;5056142;28;20483;-85
2021/07/06 12:03:27;;;;;;;18.90;18.00;;;;;;;;;;5038289;28;20451;-85
2021/07/06 12:05:55;;;;;;;18.20;17.30;;;;;;;;;;5055766;28;20964;-85
2021/07/06 12:08:24;;;;;;;17.93;17.13;;;;;;;;;;5055981;28;20423;-85
2021/07/06 12:10:59;;;;;;;17.77;16.87;;;;;;;;;;5055862;28;20460;-85
2021/07/06 12:13:29;;;;;;;18.37;17.50;;;;;;;;;;5055619;28;20439;-86
2021/07/06 12:16:01;;;;;;;18.90;17.80;;;;;;;;;;5056762;28;20423;-85
2021/07/06 12:18:28;;;;;;;18.10;17.20;;;;;;;;;;5055671;28;20441;-86
2021/07/06 12:20:57;;;;;;;18.03;17.23;;;;;;;;;;5055056;28;20465;-86
2021/07/06 12:23:25;;;;;;;18.53;17.63;;;;;;;;;;5054801;28;20486;-86
2021/07/06 12:25:55;;;;;;;18.60;17.70;;;;;;;;;;5055372;28;20930;-85
2021/07/06 12:28:22;;;;;;;18.70;17.80;;;;;;;;;;5055325;28;20814;-85
2021/07/06 12:31:08;;;;;;;19.00;18.00;;;;;;;;;;5037890;28;20465;-85
2021/07/06 12:33:37;;;;;;;18.77;17.87;;;;;;;;;;5055387;28;20413;-85
2021/07/06 12:36:05;;;;;;;19.10;18.00;;;;;;;;;;5055739;28;20769;-85
2021/07/06 12:38:32;;;;;;;18.80;17.90;;;;;;;;;;5055022;28;20453;-86
2021/07/06 12:41:00;;;;;;;18.63;17.73;;;;;;;;;;5055450;28;20446;-86
2021/07/06 12:43:28;;;;;;;18.90;18.00;;;;;;;;;;5037964;28;20445;-86
2021/07/06 12:46:06;;;;;;;19.40;18.50;;;;;;;;;;5055531;28;20442;-85
2021/07/06 12:48:35;;;;;;;18.83;17.93;;;;;;;;;;5055193;28;20891;-85
2021/07/06 12:51:10;;;;;;;19.10;18.10;;;;;;;;;;5054801;28;20977;-85
2021/07/06 12:53:37;;;;;;;18.50;17.60;;;;;;;;;;5055347;28;20408;-86
2021/07/06 12:56:20;;;;;;;19.77;18.57;;;;;;;;;;5055092;28;20442;-85
2021/07/06 12:58:47;;;;;;;19.10;18.10;;;;;;;;;;5054833;28;20924;-86
2021/07/06 13:01:15;;;;;;;18.47;17.57;;;;;;;;;;5054861;28;20518;-85
2021/07/06 13:03:52;;;;;;;19.20;18.20;;;;;;;;;;5037117;28;20457;-84
2021/07/06 13:06:22;;;;;;;19.67;18.57;;;;;;;;;;5036481;28;20428;-85
2021/07/06 13:08:52;;;;;;;19.47;18.33;;;;;;;;;;5054788;28;20443;-86
2021/07/06 13:11:25;;;;;;;20.10;18.90;;;;;;;;;;5054849;28;20486;-85
2021/07/06 13:13:53;;;;;;;19.90;18.70;;;;;;;;;;5054927;28;20449;-86
2021/07/06 13:16:27;;;;;;;19.37;18.37;;;;;;;;;;5054633;28;20435;-85
2021/07/06 13:18:55;;;;;;;19.10;18.00;;;;;;;;;;5054681;28;20417;-85
2021/07/06 13:21:28;;;;;;;19.93;18.77;;;;;;;;;;5054673;28;20424;-85
2021/07/06 13:23:59;;;;;;;20.63;19.43;;;;;;;;;;5054401;28;20546;-85
2021/07/06 13:26:26;;;;;;;20.30;19.10;;;;;;;;;;5054518;28;20522;-85
2021/07/06 13:28:55;;;;;;;20.40;19.10;;;;;;;;;;5054318;28;20408;-85
2021/07/06 13:31:24;;;;;;;20.37;19.27;;;;;;;;;;5036698;28;20818;-85
2021/07/06 13:33:52;;;;;;;19.20;18.20;;;;;;;;;;5054199;28;20937;-85
2021/07/06 13:36:19;;;;;;;19.47;18.37;;;;;;;;;;5054652;28;20474;-85
2021/07/06 13:38:48;;;;;;;20.57;19.37;;;;;;;;;;5053949;28;20975;-85
2021/07/06 13:41:15;;;;;;;20.60;19.40;;;;;;;;;;5054564;28;20937;-85
2021/07/06 13:43:43;;;;;;;20.23;19.13;;;;;;;;;;5054112;28;20417;-85
2021/07/06 13:46:10;;;;;;;20.43;19.23;;;;;;;;;;5054172;28;20428;-84
2021/07/06 13:48:38;;;;;;;19.93;18.80;;;;;;;;;;5053562;28;20875;-84
2021/07/06 13:51:05;;;;;;;20.40;19.20;;;;;;;;;;5053655;28;20486;-85
2021/07/06 13:53:32;;;;;;;20.07;18.97;;;;;;;;;;5054053;28;20431;-85
2021/07/06 13:56:01;;;;;;;19.93;18.73;;;;;;;;;;5036278;28;20922;-84
2021/07/06 13:58:29;;;;;;;20.67;19.57;;;;;;;;;;5054100;28;20509;-85
2021/07/06 14:00:56;;;;;;;20.43;19.23;;;;;;;;;;5053661;28;20455;-84
2021/07/06 14:03:24;;;;;;;20.73;19.43;;;;;;;;;;5036532;28;20439;-84
2021/07/06 14:05:51;;;;;;;20.80;19.60;;;;;;;;;;5053714;28;20875;-84
2021/07/06 14:08:19;;;;;;;22.00;20.70;;;;;;;;;;5053710;28;20530;-84
2021/07/06 14:10:46;;;;;;;20.47;19.30;;;;;;;;;;5053844;28;20458;-84
2021/07/06 14:13:16;;;;;;;21.50;20.30;;;;;;;;;;5053549;28;20411;-84
2021/07/06 14:15:43;;;;;;;21.30;20.10;;;;;;;;;;5053777;28;20449;-84
2021/07/06 14:18:11;;;;;;;20.90;19.50;;;;;;;;;;5053946;28;20804;-84
2021/07/06 14:20:38;;;;;;;20.93;19.47;;;;;;;;;;5053442;28;20420;-85
2021/07/06 14:23:09;;;;;;;21.73;20.43;;;;;;;;;;5053641;28;20471;-84
2021/07/06 14:25:37;;;;;;;21.33;20.13;;;;;;;;;;5054130;28;20421;-84
2021/07/06 14:28:05;;;;;;;22.43;20.80;;;;;;;;;;5035805;28;20453;-84
2021/07/06 14:30:34;;;;;;;22.17;20.77;;;;;;;;;;5035762;28;20472;-84
2021/07/06 14:33:02;;;;;;;21.53;19.97;;;;;;;;;;5053346;28;20891;-85
2021/07/06 14:35:29;;;;;;;21.93;20.73;;;;;;;;;;5053227;28;20449;-84
2021/07/06 14:37:57;;;;;;;22.17;20.87;;;;;;;;;;5053340;28;21010;-84
2021/07/06 14:40:24;;;;;;;21.53;20.33;;;;;;;;;;5053602;28;20421;-84
2021/07/06 14:42:52;;;;;;;22.20;20.90;;;;;;;;;;5053332;28;20428;-84
2021/07/06 14:45:19;;;;;;;21.20;20.00;;;;;;;;;;5055515;28;20445;-84
2021/07/06 14:47:48;;;;;;;21.07;19.87;;;;;;;;;;5057548;28;20443;-84
2021/07/06 14:50:17;;;;;;;21.70;20.50;;;;;;;;;;5057752;28;20478;-84
2021/07/06 14:52:44;;;;;;;20.80;19.40;;;;;;;;;;5038920;28;20436;-84
2021/07/06 14:55:12;;;;;;;21.30;20.10;;;;;;;;;;5057114;28;20457;-84
2021/07/06 14:57:40;;;;;;;21.67;20.37;;;;;;;;;;5057200;28;20450;-84
2021/07/06 15:00:10;;;;;;;22.50;21.20;;;;;;;;;;5056825;28;20438;-84
2021/07/06 15:02:38;;;;;;;21.30;20.03;;;;;;;;;;5057221;28;20817;-84
2021/07/06 15:05:08;;;;;;;21.00;19.80;;;;;;;;;;5057018;28;20452;-85
2021/07/06 15:07:35;;;;;;;21.63;20.43;;;;;;;;;;5056796;28;20790;-84
2021/07/06 15:10:03;;;;;;;22.27;20.97;;;;;;;;;;5056707;28;20440;-84
2021/07/06 15:12:30;;;;;;;21.17;19.97;;;;;;;;;;5056791;28;20440;-84
2021/07/06 15:14:58;;;;;;;21.47;20.27;;;;;;;;;;5056704;28;20413;-84
2021/07/06 15:17:26;;;;;;;20.73;19.47;;;;;;;;;;5056669;28;20427;-84
2021/07/06 15:19:54;;;;;;;22.07;20.87;;;;;;;;;;5056537;28;20498;-84
2021/07/06 15:22:25;;;;;;;21.57;20.17;;;;;;;;;;5056147;28;20488;-84
2021/07/06 15:24:52;;;;;;;21.63;20.43;;;;;;;;;;5056202;28;20448;-84
2021/07/06 15:27:19;;;;;;;22.87;21.37;;;;;;;;;;5056404;28;20417;-84
2021/07/06 15:29:48;;;;;;;22.23;20.87;;;;;;;;;;5056526;28;20434;-84
2021/07/06 15:32:15;;;;;;;22.27;20.97;;;;;;;;;;5056078;28;20980;-84
2021/07/06 15:34:43;;;;;;;21.00;19.80;;;;;;;;;;5056284;28;20456;-84
2021/07/06 15:37:10;;;;;;;21.50;20.30;;;;;;;;;;5038567;28;20975;-84
2021/07/06 15:39:39;;;;;;;21.10;19.80;;;;;;;;;;5056227;28;20444;-84
2021/07/06 15:42:06;;;;;;;20.40;19.20;;;;;;;;;;5056372;28;20790;-84
2021/07/06 15:44:34;;;;;;;21.50;20.20;;;;;;;;;;5056115;28;20450;-83
2021/07/06 15:47:01;;;;;;;21.60;20.40;;;;;;;;;;5056331;28;20452;-84
2021/07/06 15:49:29;;;;;;;21.93;20.33;;;;;;;;;;5055886;28;20445;-84
2021/07/06 15:51:57;;;;;;;21.07;19.87;;;;;;;;;;5038238;28;20481;-84
2021/07/06 15:54:24;;;;;;;21.27;19.93;;;;;;;;;;5038509;28;20438;-84
2021/07/06 15:56:54;;;;;;;21.17;19.87;;;;;;;;;;5054355;28;20438;-84
2021/07/06 15:59:22;;;;;;;20.67;19.37;;;;;;;;;;5038222;28;20525;-84
2021/07/06 16:01:49;;;;;;;20.10;18.90;;;;;;;;;;5055935;28;20424;-84
2021/07/06 16:04:17;;;;;;;20.87;19.57;;;;;;;;;;5055867;28;20443;-84
2021/07/06 16:06:45;;;;;;;21.07;19.87;;;;;;;;;;5055554;28;20408;-84
2021/07/06 16:09:12;;;;;;;21.53;20.23;;;;;;;;;;5055553;28;20409;-84
2021/07/06 16:11:40;;;;;;;22.03;19.97;;;;;;;;;;5037905;28;20486;-84
2021/07/06 16:14:09;;;;;;;22.07;20.33;;;;;;;;;;5037950;28;20425;-83
2021/07/06 16:16:36;;;;;;;21.30;20.10;;;;;;;;;;5038006;28;20793;-85
2021/07/06 16:19:03;;;;;;;21.37;20.17;;;;;;;;;;5054801;28;20906;-83
2021/07/06 16:21:31;;;;;;;21.30;20.00;;;;;;;;;;5054912;28;20467;-84
2021/07/06 16:23:58;;;;;;;21.33;19.93;;;;;;;;;;5055933;28;20825;-85
2021/07/06 16:26:26;;;;;;;21.17;19.97;;;;;;;;;;5055735;28;20904;-84
2021/07/06 16:28:53;;;;;;;21.77;20.47;;;;;;;;;;5055803;28;20455;-84
2021/07/06 16:31:22;;;;;;;21.10;19.80;;;;;;;;;;5055828;28;20478;-85
2021/07/06 16:33:50;;;;;;;21.10;19.80;;;;;;;;;;5055138;28;20439;-85
2021/07/06 16:36:17;;;;;;;22.27;20.87;;;;;;;;;;5056531;28;20447;-84
2021/07/06 16:38:45;;;;;;;22.20;20.70;;;;;;;;;;5055283;28;20467;-84
2021/07/06 16:41:15;;;;;;;22.90;21.00;;;;;;;;;;5054739;28;20458;-85
2021/07/06 16:43:42;;;;;;;22.57;21.27;;;;;;;;;;5054614;28;20807;-85
2021/07/06 16:46:09;;;;;;;22.23;20.93;;;;;;;;;;5052230;28;20460;-83
2021/07/06 16:48:39;;;;;;;22.27;20.77;;;;;;;;;;5042834;28;20462;-84
2021/07/06 18:00:04;;;;;;;21.63;20.20;;;;;;;;;;5009679;28;20988;-85
2021/07/06 18:05:16;;;;;;;41.03;21.40;;;;;;;;;;5032009;28;20433;-96
2021/07/06 18:07:44;;;;;;;21.40;20.10;;;;;;;;;;5028069;28;20449;-96
2021/07/06 18:10:13;;;;;;;21.27;19.60;;;;;;;;;;5031494;28;20470;-96
2021/07/06 18:12:41;;;;;;;21.27;20.07;;;;;;;;;;5036434;28;20503;-96
2021/07/06 18:15:10;;;;;;;21.20;20.00;;;;;;;;;;5013760;28;20450;-96
2021/07/06 18:17:41;;;;;;;21.93;20.63;;;;;;;;;;5028859;28;20964;-96
2021/07/06 18:20:09;;;;;;;21.40;19.97;;;;;;;;;;5029734;28;20545;-96
2021/07/06 18:22:37;;;;;;;21.50;20.00;;;;;;;;;;5040234;28;20489;-96
2021/07/06 18:25:05;;;;;;;21.00;19.80;;;;;;;;;;5038113;28;20439;-96
2021/07/06 18:27:34;;;;;;;22.37;20.97;;;;;;;;;;5053995;28;20479;-96
2021/07/06 18:30:01;;;;;;;23.03;21.23;;;;;;;;;;5052969;28;20432;-95
2021/07/06 18:32:30;;;;;;;22.17;20.50;;;;;;;;;;5047023;28;20496;-85
2021/07/06 18:34:57;;;;;;;21.67;20.27;;;;;;;;;;5030151;28;20520;-85
2021/07/06 18:37:28;;;;;;;22.27;20.87;;;;;;;;;;5049459;28;20455;-96
2021/07/06 18:39:56;;;;;;;22.10;20.50;;;;;;;;;;5065747;28;20459;-96
2021/07/06 18:42:32;;;;;;;22.53;21.03;;;;;;;;;;5071809;28;20468;-96
2021/07/06 18:45:01;;;;;;;21.80;20.43;;;;;;;;;;5053363;28;20457;-96
2021/07/06 18:47:30;;;;;;;23.87;21.97;;;;;;;;;;5065630;28;20503;-93
2021/07/06 18:49:57;;;;;;;23.10;21.60;;;;;;;;;;5054573;28;20468;-85
2021/07/06 18:52:24;;;;;;;24.00;22.20;;;;;;;;;;5047459;28;20501;-85
2021/07/06 18:54:52;;;;;;;23.93;22.03;;;;;;;;;;5046762;28;20434;-85
2021/07/06 18:57:20;;;;;;;22.63;21.10;;;;;;;;;;5053621;28;20436;-95
2021/07/06 18:59:48;;;;;;;22.93;21.43;;;;;;;;;;5059347;28;20501;-96
2021/07/06 19:02:28;;;;;;;22.53;20.83;;;;;;;;;;5056959;28;20446;-85
2021/07/06 19:04:56;;;;;;;22.90;21.30;;;;;;;;;;5047320;28;20465;-85
2021/07/06 19:07:23;;;;;;;23.70;22.20;;;;;;;;;;5049670;28;20449;-85
2021/07/06 19:09:51;;;;;;;22.80;21.20;;;;;;;;;;5048252;28;20534;-96
2021/07/06 19:12:19;;;;;;;22.90;21.40;;;;;;;;;;5047337;28;20467;-94
2021/07/06 19:14:46;;;;;;;22.90;21.40;;;;;;;;;;5052642;28;20423;-95
2021/07/06 19:17:13;;;;;;;23.37;21.73;;;;;;;;;;5047821;28;20436;-85
2021/07/06 19:19:42;;;;;;;24.67;22.07;;;;;;;;;;5047002;28;20470;-84
2021/07/06 19:22:09;;;;;;;22.83;21.00;;;;;;;;;;5045774;28;20492;-94
2021/07/06 19:24:40;;;;;;;23.43;21.27;;;;;;;;;;5048445;28;20816;-95
2021/07/06 19:27:08;;;;;;;22.03;20.40;;;;;;;;;;5048231;28;20431;-96
2021/07/06 19:32:22;;;;;;;21.73;20.23;;;;;;;;;;5049029;28;20476;-95
2021/07/06 19:34:51;;;;;;;22.77;21.07;;;;;;;;;;5048749;28;20444;-95
2021/07/06 19:37:18;;;;;;;23.20;21.47;;;;;;;;;;5030944;28;20447;-96
2021/07/06 19:39:46;;;;;;;22.63;21.00;;;;;;;;;;5048352;28;20457;-95
2021/07/06 19:42:15;;;;;;;25.13;21.33;;;;;;;;;;5048562;28;20431;-96